Bovey, MN (55709)

3:52 AM CDT on July 23, 2014 (GMT -0500)
Grand Rapids-Itasca County-Newstrom Field (KGPZ) Elev 1355 ft | 47.21 °N, 93.51 °W | Change Station

Current weather conditions updated 17 minutes ago

Overcast
Overcast
55 °F
Feels Like 55 °F
N
0
Wind Variable Wind from North

Today is forecast to be nearly the same temperature as yesterday.

Today
High -- | Low -- °F
--% Chance of Precip.
Yesterday
High -- | Low -- °F
Precip. -- in
5:41 AM 8:57 PM
Waning Crescent, 12% visible
Pressure 30.22 in
Visibility 10.0 miles
Clouds Clear
Dew Point 52 °F
Humidity 88%
Rainfall 0.00 in
Snow Depth Not available.
UV 0 out of 12
Pollen 3.30 out of 12
Air Quality Not available.
Flu Activity Not available.
METAR KGPZ 230835Z AUTO 00000KT 10SM CLR 13/11 A3022 RMK AO1

More Conditions Fewer Conditions

Pressure 30.22 in
Visibility 10.0 miles
Clouds Clear
Dew Point 52 °F
Humidity 88%
Rainfall 0.00 in
Snow Depth Not available.
UV 0 out of 12
Pollen 3.30 out of 12
Air Quality Not available.
Flu Activity Not available.
METAR KGPZ 230835Z AUTO 00000KT 10SM CLR 13/11 A3022 RMK AO1

More Conditions Fewer Conditions

10-Day Weather Forecast

Almanac

Astronomy

Jul. 23, 2014 Rise Set
Actual Time 5:41 AM CDT 8:57 PM CDT
Civil Twilight 5:04 AM CDT 9:34 PM CDT
Nautical Twilight 4:15 AM CDT 10:23 PM CDT
Astronomical Twilight 3:13 AM CDT 11:24 PM CDT
Moon 3:02 AM CDT 6:25 PM CDT
Length of Visible Light 16h 30m
Length of Day
15h 16m
Tomorrow will be 2m 16s shorter.
Waning Crescent, 12% of the Moon is Illuminated
Today
Waning Crescent
Jul 26
New
Aug 3
First Quarter
Aug 10
Full
Aug 17
Last Quarter

Today's Extremes

State Highs State Lows

Community

WunderPhotos

Upload Photos

1,736,529 photos uploaded!

Nearby

Snow Depth

Station Depth Elevation
No new snow has been reported.

Earthquake Activity

City Distance Mag. Time & Date
No recent earthquake activity has been reported nearby.
Minimum magnitude displayed is 2.5.

Coastal Water Temperatures

Place Temperature
No Stations Reporting

Nearby Weather Stations

Station Location Temp. Dew Point Humidity Wind Precip. Elev Updated Type
Northwest, Grand Rapids, MN 56.5 °F 55 °F 95% North  at  0.0 mph 0.00 in / hr 1289 ft 3:52 AM CDT Rapid Fire
Southwest, Grand Rapids, MN 57.6 °F 56 °F 95% NW  at  0.0 mph 0.00 in / hr 1322 ft 3:51 AM CDT Normal
Near Hwy 63, Cohasset, MN 56.1 °F 52 °F 86% NW  at  0.0 mph 0.00 in / hr 1305 ft 3:46 AM CDT Normal
On Bass Lake, Cohasset, MN 57.3 °F 55 °F 90% WSW  at  0.0 mph 0.00 in / hr 1273 ft 3:47 AM CDT Normal
Ye old Homestead, Deer River, MN 52.9 °F 51 °F 93% WNW  at  0.0 mph - / hr 1339 ft 3:42 AM CDT Normal
Long Lake 59-24, Bigfork, MN 55.7 °F 54 °F 93% ENE  at  0.0 mph 0.00 in / hr 1381 ft 3:52 AM CDT Rapid Fire

Show More Stations Show Fewer Stations